createdAt,value
2018-01-11T00:00:39.730Z,55.60
2018-01-11T00:01:39.725Z,55.77
2018-01-11T00:02:39.716Z,55.38
2018-01-11T00:03:39.710Z,55.57
2018-01-11T00:04:39.704Z,55.57
2018-01-11T00:05:39.699Z,55.67
2018-01-11T00:06:39.690Z,55.48
2018-01-11T00:07:39.687Z,55.67
2018-01-11T00:08:39.679Z,55.38
2018-01-11T00:09:39.672Z,55.38
2018-01-11T00:10:39.665Z,55.57
2018-01-11T00:11:39.659Z,55.57
2018-01-11T00:12:39.653Z,55.77
2018-01-11T00:13:39.647Z,55.77
2018-01-11T00:14:39.640Z,55.77
2018-01-11T00:15:39.637Z,56.15
2018-01-11T00:16:39.627Z,56.05
2018-01-11T00:17:39.619Z,56.15
2018-01-11T00:18:39.613Z,56.15
2018-01-11T00:19:39.606Z,56.15
2018-01-11T00:20:39.599Z,56.15
2018-01-11T00:21:39.594Z,56.25
2018-01-11T00:22:39.587Z,56.05
2018-01-11T00:23:39.581Z,56.25
2018-01-11T00:24:39.575Z,56.15
2018-01-11T00:25:39.573Z,56.15
2018-01-11T00:26:39.561Z,56.15
2018-01-11T00:27:39.556Z,56.15
2018-01-11T00:28:39.548Z,55.87
2018-01-11T00:29:39.548Z,55.87
2018-01-11T00:30:39.535Z,56.05
2018-01-11T00:31:39.529Z,56.05
2018-01-11T00:32:39.525Z,55.96
2018-01-11T00:33:39.517Z,56.44
2018-01-11T00:34:39.511Z,56.25
2018-01-11T00:35:39.507Z,55.87
2018-01-11T00:36:39.495Z,56.25
2018-01-11T00:37:39.493Z,56.35
2018-01-11T00:38:39.484Z,56.35
2018-01-11T00:39:39.478Z,56.15
2018-01-11T00:40:39.475Z,56.35
2018-01-11T00:41:39.465Z,56.44
2018-01-11T00:42:39.457Z,56.35
2018-01-11T00:43:39.452Z,56.35
2018-01-11T00:44:39.446Z,56.44
2018-01-11T00:45:39.441Z,56.44
2018-01-11T00:46:39.432Z,56.44
2018-01-11T00:47:39.426Z,56.35
2018-01-11T00:48:39.419Z,56.25
2018-01-11T00:49:39.414Z,56.35
2018-01-11T00:50:39.407Z,56.44
2018-01-11T00:51:39.399Z,56.54
2018-01-11T00:52:39.396Z,56.44
2018-01-11T00:53:39.389Z,56.35
2018-01-11T00:54:39.388Z,56.35
2018-01-11T00:55:39.375Z,56.35
2018-01-11T00:56:39.369Z,56.44
2018-01-11T00:57:39.364Z,56.35
2018-01-11T00:58:39.356Z,56.63
2018-01-11T00:59:39.350Z,57.02
2018-01-11T01:00:39.341Z,57.02
2018-01-11T01:01:39.337Z,56.73
2018-01-11T01:02:39.330Z,56.54
2018-01-11T01:03:39.324Z,56.82
2018-01-11T01:04:39.317Z,56.82
2018-01-11T01:05:39.313Z,56.63
2018-01-11T01:06:39.304Z,57.12
2018-01-11T01:07:39.298Z,56.63
2018-01-11T01:08:39.291Z,57.12
2018-01-11T01:09:39.286Z,57.02
2018-01-11T01:10:39.279Z,56.82
2018-01-11T01:11:39.272Z,56.73
2018-01-11T01:12:39.266Z,56.92
2018-01-11T01:13:39.263Z,57.12
2018-01-11T01:14:39.253Z,56.82
2018-01-11T01:15:39.247Z,56.92
2018-01-11T01:16:39.241Z,57.12
2018-01-11T01:17:39.238Z,57.02
2018-01-11T01:18:39.227Z,57.12
2018-01-11T01:19:39.222Z,56.73
2018-01-11T01:20:39.218Z,56.73
2018-01-11T01:21:39.208Z,56.82
2018-01-11T01:22:39.202Z,56.73
2018-01-11T01:23:39.195Z,56.82
2018-01-11T01:24:39.190Z,56.82
2018-01-11T01:25:39.185Z,56.82
2018-01-11T01:26:39.175Z,56.92
2018-01-11T01:27:39.169Z,56.82
2018-01-11T01:28:39.164Z,56.82
2018-01-11T01:29:39.156Z,56.73
2018-01-11T01:30:39.150Z,56.92
2018-01-11T01:31:39.191Z,56.73
2018-01-11T01:32:39.139Z,56.63
2018-01-11T01:33:39.131Z,56.54
2018-01-11T01:34:39.126Z,56.54
2018-01-11T01:35:39.132Z,56.73
2018-01-11T01:36:39.116Z,56.63
2018-01-11T01:37:39.107Z,56.82
2018-01-11T01:38:39.099Z,56.73
2018-01-11T01:39:39.134Z,56.92
2018-01-11T01:40:39.089Z,57.21
2018-01-11T01:41:39.081Z,57.12
2018-01-11T01:42:39.073Z,57.31
2018-01-11T01:43:39.067Z,57.31
2018-01-11T01:44:39.061Z,57.31
2018-01-11T01:45:39.055Z,56.73
2018-01-11T01:46:39.047Z,57.69
2018-01-11T01:47:39.042Z,57.69
2018-01-11T01:48:39.036Z,57.50
2018-01-11T01:49:39.030Z,57.60
2018-01-11T01:50:39.022Z,57.50
2018-01-11T01:51:39.019Z,57.21
2018-01-11T01:52:39.011Z,57.31
2018-01-11T01:53:39.003Z,57.02
2018-01-11T01:54:38.997Z,57.21
2018-01-11T01:55:38.990Z,57.31
2018-01-11T01:56:38.985Z,57.31
2018-01-11T01:57:38.978Z,57.40
2018-01-11T01:58:38.971Z,57.40
2018-01-11T01:59:38.965Z,57.40
2018-01-11T02:00:38.962Z,57.79
2018-01-11T02:01:38.952Z,57.69
2018-01-11T02:02:38.948Z,57.69
2018-01-11T02:03:38.939Z,57.69
2018-01-11T02:04:38.933Z,57.69
2018-01-11T02:05:38.927Z,57.69
2018-01-11T02:06:38.921Z,57.50
2018-01-11T02:07:38.914Z,57.89
2018-01-11T02:08:38.911Z,57.69
2018-01-11T02:09:38.903Z,57.79
2018-01-11T02:10:38.893Z,57.89
2018-01-11T02:11:38.889Z,57.89
2018-01-11T02:12:38.881Z,57.60
2018-01-11T02:13:38.877Z,57.60
2018-01-11T02:14:38.869Z,57.60
2018-01-11T02:15:38.864Z,57.60
2018-01-11T02:16:38.858Z,57.79
2018-01-11T02:17:38.849Z,57.60
2018-01-11T02:18:38.845Z,57.69
2018-01-11T02:19:38.838Z,57.79
2018-01-11T02:20:38.837Z,57.60
2018-01-11T02:21:38.824Z,57.40
2018-01-11T02:22:38.817Z,57.60
2018-01-11T02:23:38.812Z,57.50
2018-01-11T02:24:38.805Z,57.50
2018-01-11T02:25:38.800Z,57.69
2018-01-11T02:26:38.791Z,57.79
2018-01-11T02:27:38.793Z,57.79
2018-01-11T02:28:38.780Z,57.89
2018-01-11T02:29:38.774Z,57.69
2018-01-11T02:30:38.769Z,57.69
2018-01-11T02:31:38.760Z,57.50
2018-01-11T02:32:38.755Z,57.50
2018-01-11T02:33:38.749Z,57.50
2018-01-11T02:34:38.742Z,57.69
2018-01-11T02:35:38.735Z,57.69
2018-01-11T02:36:38.729Z,57.89
2018-01-11T02:37:38.722Z,57.98
2018-01-11T02:38:38.717Z,58.17
2018-01-11T02:39:38.711Z,58.17
2018-01-11T02:40:38.703Z,58.27
2018-01-11T02:41:38.698Z,58.17
2018-01-11T02:42:38.691Z,58.08
2018-01-11T02:43:38.685Z,57.98
2018-01-11T02:44:38.677Z,57.98
2018-01-11T02:45:38.672Z,58.08
2018-01-11T02:46:38.668Z,58.17
2018-01-11T02:47:38.659Z,58.27
2018-01-11T02:48:38.653Z,58.17
2018-01-11T02:49:38.647Z,58.08
2018-01-11T02:50:38.640Z,58.17
2018-01-11T02:51:38.639Z,58.27
2018-01-11T02:52:38.628Z,58.17
2018-01-11T02:53:38.620Z,58.27
2018-01-11T02:54:38.613Z,58.27
2018-01-11T02:55:38.607Z,58.27
2018-01-11T02:56:38.604Z,58.08
2018-01-11T02:57:38.595Z,58.37
2018-01-11T02:58:38.589Z,58.37
2018-01-11T02:59:38.584Z,58.17
2018-01-11T03:00:38.576Z,58.17
2018-01-11T03:01:38.570Z,58.17
2018-01-11T03:02:38.565Z,58.27
2018-01-11T03:03:38.557Z,58.08
2018-01-11T03:04:38.550Z,58.17
2018-01-11T03:05:38.545Z,57.98
2018-01-11T03:06:38.536Z,57.98
2018-01-11T03:07:38.531Z,58.27
2018-01-11T03:08:38.525Z,57.98
2018-01-11T03:09:38.519Z,58.08
2018-01-11T03:10:38.512Z,58.08
2018-01-11T03:11:38.508Z,57.79
2018-01-11T03:12:38.498Z,58.17
2018-01-11T03:13:38.493Z,58.08
2018-01-11T03:14:38.486Z,58.08
2018-01-11T03:15:38.481Z,58.08
2018-01-11T03:16:38.473Z,58.27
2018-01-11T03:17:38.467Z,58.56
2018-01-11T03:18:38.462Z,58.65
2018-01-11T03:19:38.454Z,58.56
2018-01-11T03:20:38.448Z,58.37
2018-01-11T03:21:38.458Z,58.37
2018-01-11T03:22:38.435Z,58.47
2018-01-11T03:23:38.429Z,58.27
2018-01-11T03:24:38.427Z,58.37
2018-01-11T03:25:38.416Z,58.34
2018-01-11T03:26:38.416Z,58.37
2018-01-11T03:27:38.404Z,58.37
2018-01-11T03:28:38.398Z,58.27
2018-01-11T03:29:38.391Z,58.17
2018-01-11T03:30:38.388Z,58.27
2018-01-11T03:31:38.376Z,58.17
2018-01-11T03:32:38.373Z,58.08
2018-01-11T03:33:38.367Z,57.98
2018-01-11T03:34:38.361Z,58.17
2018-01-11T03:35:38.354Z,58.27
2018-01-11T03:36:38.346Z,58.17
2018-01-11T03:37:38.339Z,58.27
2018-01-11T03:38:38.334Z,58.56
2018-01-11T03:39:38.330Z,58.56
2018-01-11T03:40:38.320Z,58.27
2018-01-11T03:41:38.316Z,58.75
2018-01-11T03:42:38.310Z,58.27
2018-01-11T03:43:38.300Z,58.75
2018-01-11T03:44:38.295Z,58.65
2018-01-11T03:45:38.290Z,58.75
2018-01-11T03:46:38.282Z,58.37
2018-01-11T03:47:38.276Z,58.75
2018-01-11T03:48:38.269Z,58.37
2018-01-11T03:49:38.264Z,58.56
2018-01-11T03:50:38.260Z,58.75
2018-01-11T03:51:38.251Z,58.75
2018-01-11T03:52:38.248Z,58.95
2018-01-11T03:53:38.239Z,58.95
2018-01-11T03:54:38.231Z,58.95
2018-01-11T03:55:38.224Z,58.95
2018-01-11T03:56:38.219Z,59.04
2018-01-11T03:57:38.213Z,58.95
2018-01-11T03:58:38.207Z,58.95
2018-01-11T03:59:38.201Z,58.95
2018-01-11T04:00:38.195Z,59.04
2018-01-11T04:01:38.186Z,58.95
2018-01-11T04:02:38.180Z,58.85
2018-01-11T04:03:38.175Z,58.85
2018-01-11T04:04:38.167Z,58.85
2018-01-11T04:05:38.162Z,59.04
2018-01-11T04:06:38.173Z,59.04
2018-01-11T04:07:38.149Z,58.85
2018-01-11T04:08:38.143Z,58.95
2018-01-11T04:09:38.136Z,58.75
2018-01-11T04:10:38.130Z,58.65
2018-01-11T04:11:38.129Z,58.69
2018-01-11T04:12:38.119Z,58.56
2018-01-11T04:13:38.129Z,58.40
2018-01-11T04:14:38.105Z,58.40
2018-01-11T04:15:38.098Z,58.40
2018-01-11T04:16:38.092Z,58.59
2018-01-11T04:17:38.085Z,58.40
2018-01-11T04:18:38.122Z,58.40
2018-01-11T04:19:38.073Z,58.59
2018-01-11T04:20:38.068Z,58.59
2018-01-11T04:21:38.060Z,58.59
2018-01-11T04:22:38.058Z,58.59
2018-01-11T04:23:38.047Z,58.59
2018-01-11T04:24:38.041Z,58.40
2018-01-11T04:25:38.035Z,58.40
2018-01-11T04:26:38.028Z,58.69
2018-01-11T04:27:38.026Z,58.40
2018-01-11T04:28:38.019Z,58.20
2018-01-11T04:29:38.011Z,58.20
2018-01-11T04:30:38.005Z,58.11
2018-01-11T04:31:38.000Z,58.40
2018-01-11T04:32:37.992Z,58.40
2018-01-11T04:33:37.986Z,58.20
2018-01-11T04:34:37.980Z,58.30
2018-01-11T04:35:37.978Z,58.40
2018-01-11T04:36:37.968Z,58.59
2018-01-11T04:37:37.960Z,58.49
2018-01-11T04:38:37.954Z,58.40
2018-01-11T04:39:37.949Z,58.20
2018-01-11T04:40:37.944Z,58.49
2018-01-11T04:41:37.937Z,58.20
2018-01-11T04:42:37.929Z,58.40
2018-01-11T04:43:37.924Z,58.30
2018-01-11T04:44:37.917Z,58.40
2018-01-11T04:45:37.911Z,58.49
2018-01-11T04:46:37.904Z,58.33
2018-01-11T04:47:37.899Z,58.20
2018-01-11T04:48:37.894Z,58.62
2018-01-11T04:49:37.886Z,58.42
2018-01-11T04:50:37.878Z,58.42
2018-01-11T04:51:37.873Z,58.23
2018-01-11T04:52:37.867Z,58.42
2018-01-11T04:53:37.862Z,58.33
2018-01-11T04:54:37.854Z,58.52
2018-01-11T04:55:37.847Z,58.69
2018-01-11T04:56:37.839Z,58.14
2018-01-11T04:57:37.835Z,58.20
2018-01-11T04:58:37.827Z,58.11
2018-01-11T04:59:37.820Z,57.72
2018-01-11T05:00:37.812Z,57.62
2018-01-11T05:01:37.806Z,57.53
2018-01-11T05:02:37.799Z,57.65
2018-01-11T05:03:37.792Z,57.34
2018-01-11T05:04:37.787Z,57.46
2018-01-11T05:05:37.778Z,57.14
2018-01-11T05:06:37.771Z,57.43
2018-01-11T05:07:37.765Z,57.72
2018-01-11T05:08:37.762Z,56.76
2018-01-11T05:09:37.749Z,56.85
2018-01-11T05:10:37.752Z,56.79
2018-01-11T05:11:37.735Z,56.95
2018-01-11T05:12:37.725Z,56.57
2018-01-11T05:13:37.720Z,56.79
2018-01-11T05:14:37.711Z,56.85
2018-01-11T05:15:37.703Z,56.79
2018-01-11T05:16:37.697Z,56.76
2018-01-11T05:17:37.691Z,56.85
2018-01-11T05:18:37.682Z,56.27
2018-01-11T05:19:37.674Z,56.47
2018-01-11T05:20:37.667Z,56.37
2018-01-11T05:21:37.664Z,56.47
2018-01-11T05:22:37.652Z,56.57
2018-01-11T05:23:37.645Z,56.59
2018-01-11T05:24:37.637Z,56.47
2018-01-11T05:25:37.629Z,56.40
2018-01-11T05:26:37.624Z,56.49
2018-01-11T05:27:37.613Z,56.49
2018-01-11T05:28:37.607Z,56.40
2018-01-11T05:29:37.598Z,56.37
2018-01-11T05:30:37.592Z,56.11
2018-01-11T05:31:37.583Z,56.27
2018-01-11T05:32:37.575Z,56.49
2018-01-11T05:33:37.569Z,56.40
2018-01-11T05:34:37.560Z,56.30
2018-01-11T05:35:37.552Z,55.79
2018-01-11T05:36:37.545Z,55.82
2018-01-11T05:37:37.539Z,56.11
2018-01-11T05:38:37.530Z,56.01
2018-01-11T05:39:37.522Z,55.92
2018-01-11T05:40:37.516Z,56.21
2018-01-11T05:41:37.507Z,56.21
2018-01-11T05:42:37.502Z,56.21
2018-01-11T05:43:37.493Z,56.11
2018-01-11T05:44:37.485Z,56.30
2018-01-11T05:45:37.482Z,56.21
2018-01-11T05:46:37.469Z,56.11
2018-01-11T05:47:37.460Z,56.01
2018-01-11T05:48:37.453Z,56.11
2018-01-11T05:49:37.447Z,55.82
2018-01-11T05:50:37.482Z,55.82
2018-01-11T05:51:37.432Z,56.21
2018-01-11T05:52:37.424Z,56.01
2018-01-11T05:53:37.415Z,55.54
2018-01-11T05:54:37.407Z,55.73
2018-01-11T05:55:37.400Z,55.63
2018-01-11T05:56:37.393Z,55.73
2018-01-11T05:57:37.386Z,55.44
2018-01-11T05:58:37.377Z,55.44
2018-01-11T05:59:37.371Z,55.44
2018-01-11T06:00:37.362Z,55.63
2018-01-11T06:01:37.356Z,56.01
2018-01-11T06:02:37.383Z,56.01
2018-01-11T06:03:37.340Z,55.79
2018-01-11T06:04:37.331Z,55.79
2018-01-11T06:05:37.325Z,55.89
2018-01-11T06:06:37.316Z,55.79
2018-01-11T06:07:37.309Z,56.09
2018-01-11T06:08:37.300Z,55.99
2018-01-11T06:09:37.294Z,55.99
2018-01-11T06:10:37.285Z,56.18
2018-01-11T06:11:37.278Z,55.70
2018-01-11T06:12:37.270Z,55.89
2018-01-11T06:13:37.265Z,55.99
2018-01-11T06:14:37.253Z,55.89
2018-01-11T06:15:37.248Z,55.79
2018-01-11T06:16:37.239Z,55.79
2018-01-11T06:17:37.232Z,55.89
2018-01-11T06:18:37.222Z,55.60
2018-01-11T06:19:37.219Z,55.60
2018-01-11T06:20:37.210Z,55.60
2018-01-11T06:21:37.201Z,55.60
2018-01-11T06:22:37.193Z,55.70
2018-01-11T06:23:37.188Z,55.51
2018-01-11T06:24:37.177Z,55.89
2018-01-11T06:25:37.174Z,55.79
2018-01-11T06:26:37.161Z,55.79
2018-01-11T06:27:37.152Z,55.31
2018-01-11T06:28:37.148Z,55.60
2018-01-11T06:29:37.140Z,55.51
2018-01-11T06:30:37.132Z,55.51
2018-01-11T06:31:37.124Z,55.41
2018-01-11T06:32:37.116Z,55.41
2018-01-11T06:33:37.107Z,55.51
2018-01-11T06:34:37.105Z,55.60
2018-01-11T06:35:37.093Z,55.60
2018-01-11T06:36:37.085Z,55.60
2018-01-11T06:37:37.078Z,55.51
2018-01-11T06:38:37.070Z,55.51
2018-01-11T06:39:37.062Z,55.89
2018-01-11T06:40:37.106Z,55.05
2018-01-11T06:41:37.048Z,55.89
2018-01-11T06:42:37.038Z,55.82
2018-01-11T06:43:37.032Z,55.15
2018-01-11T06:44:37.022Z,55.15
2018-01-11T06:45:37.016Z,55.15
2018-01-11T06:46:37.007Z,55.44
2018-01-11T06:47:37.000Z,55.12
2018-01-11T06:48:36.993Z,55.22
2018-01-11T06:49:36.985Z,55.24
2018-01-11T06:50:36.977Z,55.12
2018-01-11T06:51:36.970Z,55.15
2018-01-11T06:52:36.961Z,55.31
2018-01-11T06:53:36.955Z,55.24
2018-01-11T06:54:36.947Z,55.24
2018-01-11T06:55:36.938Z,55.41
2018-01-11T06:56:36.933Z,55.22
2018-01-11T06:57:36.922Z,55.60
2018-01-11T06:58:36.914Z,55.54
2018-01-11T06:59:36.908Z,55.54
2018-01-11T07:00:36.901Z,55.51
2018-01-11T07:01:36.892Z,55.54
2018-01-11T07:02:36.884Z,55.12
2018-01-11T07:03:36.876Z,55.22
2018-01-11T07:04:36.884Z,55.31
2018-01-11T07:05:36.864Z,54.93
2018-01-11T07:06:36.852Z,55.12
2018-01-11T07:07:36.845Z,55.22
2018-01-11T07:08:36.837Z,55.22
2018-01-11T07:09:36.830Z,55.51
2018-01-11T07:10:36.825Z,55.24
2018-01-11T07:11:36.817Z,55.02
2018-01-11T07:12:36.806Z,54.93
2018-01-11T07:13:36.798Z,55.24
2018-01-11T07:14:36.790Z,55.02
2018-01-11T07:15:36.784Z,55.31
2018-01-11T07:16:36.775Z,54.74
2018-01-11T07:17:36.775Z,54.66
2018-01-11T07:18:36.761Z,55.22
2018-01-11T07:19:36.751Z,54.74
2018-01-11T07:20:36.746Z,55.22
2018-01-11T07:21:36.737Z,54.93
2018-01-11T07:22:36.728Z,55.34
2018-01-11T07:23:36.721Z,55.31
2018-01-11T07:24:36.714Z,55.12
2018-01-11T07:25:36.710Z,55.31
2018-01-11T07:26:36.697Z,55.22
2018-01-11T07:27:36.692Z,55.31
2018-01-11T07:28:36.688Z,55.31
2018-01-11T07:29:36.675Z,55.31
2018-01-11T07:30:36.667Z,55.22
2018-01-11T07:31:36.659Z,54.93
2018-01-11T07:32:36.652Z,54.83
2018-01-11T07:33:36.645Z,54.83
2018-01-11T07:34:36.636Z,54.64
2018-01-11T07:35:36.629Z,55.02
2018-01-11T07:36:36.621Z,55.02
2018-01-11T07:37:36.613Z,54.54
2018-01-11T07:38:36.606Z,54.54
2018-01-11T07:39:36.601Z,54.54
2018-01-11T07:40:36.589Z,54.57
2018-01-11T07:41:36.622Z,54.54
2018-01-11T07:42:36.574Z,54.54
2018-01-11T07:43:36.567Z,54.54
2018-01-11T07:44:36.559Z,54.54
2018-01-11T07:45:36.551Z,54.57
2018-01-11T07:46:36.542Z,54.64
2018-01-11T07:47:36.534Z,54.54
2018-01-11T07:48:36.527Z,54.74
2018-01-11T07:49:36.519Z,54.44
2018-01-11T07:50:36.518Z,54.83
2018-01-11T07:51:36.505Z,54.83
2018-01-11T07:52:36.497Z,54.76
2018-01-11T07:53:36.488Z,54.83
2018-01-11T07:54:36.480Z,54.83
2018-01-11T07:55:36.472Z,54.74
2018-01-11T07:56:36.463Z,54.83
2018-01-11T07:57:36.457Z,54.83
2018-01-11T07:58:36.450Z,54.64
2018-01-11T07:59:36.442Z,54.64
2018-01-11T08:00:36.435Z,54.74
2018-01-11T08:01:36.425Z,54.74
2018-01-11T08:02:36.418Z,54.76
2018-01-11T08:03:36.411Z,54.74
2018-01-11T08:04:36.404Z,54.74
2018-01-11T08:05:36.395Z,54.96
2018-01-11T08:06:36.388Z,54.76
2018-01-11T08:07:36.381Z,54.74
2018-01-11T08:08:36.373Z,54.93
2018-01-11T08:09:36.363Z,54.83
2018-01-11T08:10:36.357Z,54.83
2018-01-11T08:11:36.348Z,54.93
2018-01-11T08:12:36.342Z,54.93
2018-01-11T08:13:36.335Z,54.74
2018-01-11T08:14:36.326Z,54.83
2018-01-11T08:15:36.322Z,54.74
2018-01-11T08:16:36.310Z,54.93
2018-01-11T08:17:36.302Z,54.93
2018-01-11T08:18:36.294Z,54.74
2018-01-11T08:19:36.292Z,54.64
2018-01-11T08:20:36.279Z,54.83
2018-01-11T08:21:36.273Z,54.64
2018-01-11T08:22:36.266Z,54.86
2018-01-11T08:23:36.255Z,54.74
2018-01-11T08:24:36.247Z,54.83
2018-01-11T08:25:36.243Z,54.83
2018-01-11T08:26:36.232Z,54.83
2018-01-11T08:27:36.227Z,54.83
2018-01-11T08:28:36.216Z,55.02
2018-01-11T08:29:36.210Z,54.83
2018-01-11T08:30:36.201Z,54.74
2018-01-11T08:31:36.194Z,54.74
2018-01-11T08:32:36.187Z,54.74
2018-01-11T08:33:36.180Z,54.93
2018-01-11T08:34:36.171Z,54.74
2018-01-11T08:35:36.162Z,54.74
2018-01-11T08:36:36.156Z,54.83
2018-01-11T08:37:36.147Z,54.74
2018-01-11T08:38:36.139Z,54.93
2018-01-11T08:39:36.132Z,54.83
2018-01-11T08:40:36.123Z,54.93
2018-01-11T08:41:36.116Z,54.76
2018-01-11T08:42:36.108Z,54.93
2018-01-11T08:43:36.101Z,54.83
2018-01-11T08:44:36.096Z,54.83
2018-01-11T08:45:36.086Z,54.93
2018-01-11T08:46:36.076Z,54.74
2018-01-11T08:47:36.070Z,54.74
2018-01-11T08:48:36.061Z,54.86
2018-01-11T08:49:36.054Z,54.74
2018-01-11T08:50:36.046Z,54.74
2018-01-11T08:51:36.037Z,54.74
2018-01-11T08:52:36.032Z,54.74
2018-01-11T08:53:36.074Z,54.74
2018-01-11T08:54:36.015Z,54.74
2018-01-11T08:55:36.007Z,54.74
2018-01-11T08:56:35.999Z,54.54
2018-01-11T08:57:35.996Z,54.64
2018-01-11T08:58:35.987Z,55.05
2018-01-11T08:59:35.976Z,54.54
2018-01-11T09:00:35.968Z,54.64
2018-01-11T09:01:35.960Z,54.74
2018-01-11T09:02:35.955Z,54.83
2018-01-11T09:03:35.945Z,55.02
2018-01-11T09:04:35.939Z,54.86
2018-01-11T09:05:35.932Z,54.35
2018-01-11T09:06:35.922Z,54.74
2018-01-11T09:07:35.914Z,54.93
2018-01-11T09:08:35.911Z,54.83
2018-01-11T09:09:35.898Z,55.02
2018-01-11T09:10:35.890Z,54.57
2018-01-11T09:11:35.883Z,54.74
2018-01-11T09:12:35.876Z,54.96
2018-01-11T09:13:35.868Z,54.76
2018-01-11T09:14:35.858Z,54.93
2018-01-11T09:15:35.852Z,54.86
2018-01-11T09:16:35.845Z,54.74
2018-01-11T09:17:35.838Z,54.86
2018-01-11T09:18:35.828Z,54.74
2018-01-11T09:19:35.823Z,54.86
2018-01-11T09:20:35.814Z,54.86
2018-01-11T09:21:35.806Z,54.93
2018-01-11T09:22:35.797Z,54.44
2018-01-11T09:23:35.791Z,54.93
2018-01-11T09:24:35.783Z,54.74
2018-01-11T09:25:35.779Z,54.93
2018-01-11T09:26:35.768Z,54.83
2018-01-11T09:27:35.758Z,54.35
2018-01-11T09:28:35.751Z,54.83
2018-01-11T09:29:35.744Z,54.44
2018-01-11T09:30:35.735Z,54.93
2018-01-11T09:31:35.729Z,54.93
2018-01-11T09:32:35.724Z,54.76
2018-01-11T09:33:35.714Z,54.44
2018-01-11T09:34:35.704Z,54.35
2018-01-11T09:35:35.698Z,54.47
2018-01-11T09:36:35.691Z,54.25
2018-01-11T09:37:35.683Z,54.18
2018-01-11T09:38:35.696Z,54.35
2018-01-11T09:39:35.664Z,54.25
2018-01-11T09:40:35.658Z,54.25
2018-01-11T09:41:35.656Z,54.25
2018-01-11T09:42:35.641Z,54.57
2018-01-11T09:43:35.634Z,54.16
2018-01-11T09:44:35.628Z,54.44
2018-01-11T09:45:35.620Z,54.47
2018-01-11T09:46:35.613Z,54.35
2018-01-11T09:47:35.603Z,54.38
2018-01-11T09:48:35.595Z,54.25
2018-01-11T09:49:35.588Z,54.16
2018-01-11T09:50:35.579Z,54.16
2018-01-11T09:51:35.573Z,54.25
2018-01-11T09:52:35.566Z,53.89
2018-01-11T09:53:35.558Z,54.16
2018-01-11T09:54:35.550Z,54.25
2018-01-11T09:55:35.541Z,54.25
2018-01-11T09:56:35.535Z,54.06
2018-01-11T09:57:35.526Z,54.16
2018-01-11T09:58:35.519Z,54.06
2018-01-11T09:59:35.511Z,53.99
2018-01-11T10:00:35.504Z,54.06
2018-01-11T10:01:35.500Z,54.06
2018-01-11T10:02:35.504Z,54.06
2018-01-11T10:03:35.480Z,54.47
2018-01-11T10:04:35.471Z,54.06
2018-01-11T10:05:35.464Z,54.06
2018-01-11T10:06:35.458Z,54.06
2018-01-11T10:07:35.448Z,54.06
2018-01-11T10:08:35.441Z,54.16
2018-01-11T10:09:35.433Z,53.96
2018-01-11T10:10:35.426Z,54.18
2018-01-11T10:11:35.417Z,54.25
2018-01-11T10:12:35.410Z,54.16
2018-01-11T10:13:35.427Z,54.16
2018-01-11T10:14:35.394Z,53.99
2018-01-11T10:15:35.387Z,54.18
2018-01-11T10:16:35.394Z,53.87
2018-01-11T10:17:35.384Z,54.28
2018-01-11T10:18:35.363Z,54.18
2018-01-11T10:19:35.359Z,54.28
2018-01-11T10:20:35.349Z,54.18
2018-01-11T10:21:35.343Z,54.18
2018-01-11T10:22:35.338Z,54.18
2018-01-11T10:23:35.325Z,53.80
2018-01-11T10:24:35.317Z,53.99
2018-01-11T10:25:35.309Z,53.99
2018-01-11T10:26:35.304Z,53.89
2018-01-11T10:27:35.292Z,53.89
2018-01-11T10:28:35.287Z,53.89
2018-01-11T10:29:35.279Z,53.89
2018-01-11T10:30:35.269Z,53.51
2018-01-11T10:31:35.262Z,53.51
2018-01-11T10:32:35.256Z,53.80
2018-01-11T10:33:35.247Z,54.09
2018-01-11T10:34:35.239Z,53.99
2018-01-11T10:35:35.232Z,53.80
2018-01-11T10:36:35.224Z,53.70
2018-01-11T10:37:35.215Z,53.99
2018-01-11T10:38:35.207Z,53.99
2018-01-11T10:39:35.200Z,53.80
2018-01-11T10:40:35.192Z,54.18
2018-01-11T10:41:35.195Z,53.99
2018-01-11T10:42:35.175Z,53.41
2018-01-11T10:43:35.170Z,53.70
2018-01-11T10:44:35.162Z,53.51
2018-01-11T10:45:35.156Z,53.51
2018-01-11T10:46:35.146Z,53.51
2018-01-11T10:47:35.139Z,53.31
2018-01-11T10:48:35.131Z,53.51
2018-01-11T10:49:35.124Z,53.51
2018-01-11T10:50:35.115Z,53.61
2018-01-11T10:51:35.110Z,53.41
2018-01-11T10:52:35.101Z,53.53
2018-01-11T10:53:35.094Z,53.73
2018-01-11T10:54:35.087Z,53.31
2018-01-11T10:55:35.078Z,53.25
2018-01-11T10:56:35.071Z,53.34
2018-01-11T10:57:35.063Z,53.05
2018-01-11T10:58:35.054Z,53.25
2018-01-11T10:59:35.049Z,52.95
2018-01-11T11:00:35.042Z,53.05
2018-01-11T11:01:35.033Z,52.67
2018-01-11T11:02:35.026Z,52.95
2018-01-11T11:03:35.019Z,52.86
2018-01-11T11:04:35.010Z,52.86
2018-01-11T11:05:35.004Z,52.86
2018-01-11T11:06:34.997Z,52.86
2018-01-11T11:07:34.987Z,52.86
2018-01-11T11:08:34.980Z,52.86
2018-01-11T11:09:34.973Z,52.86
2018-01-11T11:10:34.965Z,52.86
2018-01-11T11:11:34.959Z,52.86
2018-01-11T11:12:34.950Z,52.86
2018-01-11T11:13:34.945Z,52.76
2018-01-11T11:14:34.936Z,53.15
2018-01-11T11:15:34.934Z,52.76
2018-01-11T11:16:34.920Z,53.05
2018-01-11T11:17:34.914Z,53.15
2018-01-11T11:18:34.905Z,52.95
2018-01-11T11:19:34.898Z,53.15
2018-01-11T11:20:34.894Z,52.57
2018-01-11T11:21:34.884Z,52.57
2018-01-11T11:22:34.881Z,52.01
2018-01-11T11:23:34.869Z,52.31
2018-01-11T11:24:34.862Z,52.50
2018-01-11T11:25:34.854Z,52.21
2018-01-11T11:26:34.846Z,52.14
2018-01-11T11:27:34.839Z,52.40
2018-01-11T11:28:34.833Z,52.31
2018-01-11T11:29:34.826Z,51.75
2018-01-11T11:30:34.818Z,51.63
2018-01-11T11:31:34.812Z,51.63
2018-01-11T11:32:34.804Z,51.53
2018-01-11T11:33:34.797Z,51.73
2018-01-11T11:34:34.789Z,51.53
2018-01-11T11:35:34.782Z,51.73
2018-01-11T11:36:34.775Z,51.65
2018-01-11T11:37:34.774Z,51.82
2018-01-11T11:38:34.761Z,51.73
2018-01-11T11:39:34.754Z,51.82
2018-01-11T11:40:34.747Z,51.82
2018-01-11T11:41:34.762Z,51.92
2018-01-11T11:42:34.731Z,51.92
2018-01-11T11:43:34.729Z,52.21
2018-01-11T11:44:34.718Z,52.11
2018-01-11T11:45:34.711Z,52.31
2018-01-11T11:46:34.703Z,52.11
2018-01-11T11:47:34.696Z,51.92
2018-01-11T11:48:34.689Z,52.11
2018-01-11T11:49:34.682Z,52.11
2018-01-11T11:50:34.674Z,52.11
2018-01-11T11:51:34.667Z,52.01
2018-01-11T11:52:34.664Z,52.01
2018-01-11T11:53:34.653Z,52.21
2018-01-11T11:54:34.646Z,52.01
2018-01-11T11:55:34.638Z,52.11
2018-01-11T11:56:34.634Z,52.40
2018-01-11T11:57:34.628Z,52.21
2018-01-11T11:58:34.617Z,52.40
2018-01-11T11:59:34.612Z,52.31
2018-01-11T12:00:34.604Z,52.31
2018-01-11T12:01:34.596Z,52.40
2018-01-11T12:02:34.589Z,52.11
2018-01-11T12:03:34.581Z,52.11
2018-01-11T12:04:34.574Z,52.01
2018-01-11T12:05:34.568Z,52.11
2018-01-11T12:06:34.560Z,52.40
2018-01-11T12:07:34.552Z,52.50
2018-01-11T12:08:34.548Z,52.21
2018-01-11T12:09:34.539Z,52.31
2018-01-11T12:10:34.531Z,52.11
2018-01-11T12:11:34.524Z,52.50
2018-01-11T12:12:34.516Z,52.57
2018-01-11T12:13:34.511Z,52.19
2018-01-11T12:14:34.501Z,52.47
2018-01-11T12:15:34.496Z,52.19
2018-01-11T12:16:34.516Z,52.28
2018-01-11T12:17:34.482Z,52.19
2018-01-11T12:18:34.473Z,52.37
2018-01-11T12:19:34.467Z,52.37
2018-01-11T12:20:34.459Z,52.28
2018-01-11T12:21:34.452Z,52.19
2018-01-11T12:22:34.442Z,52.09
2018-01-11T12:23:34.438Z,52.47
2018-01-11T12:24:34.430Z,51.99
2018-01-11T12:25:34.423Z,52.09
2018-01-11T12:26:34.414Z,52.09
2018-01-11T12:27:34.408Z,52.47
2018-01-11T12:28:34.404Z,52.47
2018-01-11T12:29:34.395Z,52.57
2018-01-11T12:30:34.384Z,52.57
2018-01-11T12:31:34.379Z,52.57
2018-01-11T12:32:34.370Z,52.57
2018-01-11T12:33:34.364Z,52.47
2018-01-11T12:34:34.356Z,52.47
2018-01-11T12:35:34.348Z,52.67
2018-01-11T12:36:34.341Z,52.67
2018-01-11T12:37:34.335Z,52.67
2018-01-11T12:38:34.326Z,52.57
2018-01-11T12:39:34.319Z,52.47
2018-01-11T12:40:34.312Z,52.47
2018-01-11T12:41:34.305Z,52.76
2018-01-11T12:42:34.297Z,52.67
2018-01-11T12:43:34.289Z,52.67
2018-01-11T12:44:34.282Z,52.47
2018-01-11T12:45:34.278Z,52.57
2018-01-11T12:46:34.267Z,52.76
2018-01-11T12:47:34.260Z,52.57
2018-01-11T12:48:34.252Z,52.57
2018-01-11T12:49:34.245Z,52.57
2018-01-11T12:50:34.237Z,52.57
2018-01-11T12:51:34.231Z,52.76
2018-01-11T12:52:34.222Z,52.76